createdAt,value
2019-05-22T00:05:04.126Z,12.40
2019-05-22T00:10:10.661Z,12.40
2019-05-22T00:15:18.922Z,12.40
2019-05-22T00:20:24.770Z,12.30
2019-05-22T00:25:40.997Z,12.30
2019-05-22T00:30:47.878Z,12.30
2019-05-22T00:35:56.559Z,12.30
2019-05-22T00:41:12.755Z,12.30
2019-05-22T00:46:19.459Z,12.30
2019-05-22T00:51:29.595Z,12.30
2019-05-22T01:07:55.737Z,12.30
2019-05-22T01:13:00.974Z,12.30
2019-05-22T01:18:10.321Z,12.30
2019-05-22T01:23:41.156Z,12.30
2019-05-22T01:28:49.237Z,12.30
2019-05-22T01:34:30.983Z,12.20
2019-05-22T01:40:06.612Z,12.30
2019-05-22T01:45:31.154Z,12.30
2019-05-22T01:51:16.778Z,12.30
2019-05-22T01:56:23.090Z,12.30
2019-05-22T02:01:31.042Z,12.30
2019-05-22T02:07:00.128Z,12.30
2019-05-22T02:12:23.120Z,12.20
2019-05-22T02:17:39.669Z,12.20
2019-05-22T02:22:46.774Z,12.20
2019-05-22T02:27:52.660Z,12.20
2019-05-22T02:32:57.371Z,12.20
2019-05-22T02:38:06.418Z,12.20
2019-05-22T02:43:15.615Z,12.20
2019-05-22T02:48:43.457Z,12.20
2019-05-22T02:54:11.009Z,12.10
2019-05-22T02:59:18.336Z,12.10
2019-05-22T03:04:25.765Z,12.10
2019-05-22T03:15:38.116Z,12.00
2019-05-22T03:20:52.762Z,12.00
2019-05-22T03:26:23.759Z,11.90
2019-05-22T03:32:19.237Z,11.90
2019-05-22T03:37:42.853Z,11.90
2019-05-22T03:42:47.051Z,11.90
2019-05-22T03:47:51.690Z,11.90
2019-05-22T03:58:57.572Z,11.90
2019-05-22T04:04:03.728Z,11.90
2019-05-22T04:09:19.295Z,11.90
2019-05-22T04:14:30.884Z,11.90
2019-05-22T04:19:48.364Z,11.90
2019-05-22T04:24:42.136Z,11.90
2019-05-22T04:29:48.628Z,11.90
2019-05-22T04:34:53.869Z,11.90
2019-05-22T04:40:59.689Z,11.90
2019-05-22T04:46:10.050Z,11.90
2019-05-22T04:51:29.006Z,11.90
2019-05-22T04:56:34.818Z,11.90
2019-05-22T05:01:40.203Z,11.90
2019-05-22T05:06:47.915Z,11.90
2019-05-22T05:11:55.146Z,11.90
2019-05-22T05:17:01.672Z,11.80
2019-05-22T05:22:06.343Z,11.90
2019-05-22T05:27:12.155Z,11.90
2019-05-22T05:32:16.468Z,11.90
2019-05-22T05:37:22.937Z,11.90
2019-05-22T05:42:31.634Z,11.90
2019-05-22T05:47:38.005Z,11.90
2019-05-22T05:52:43.775Z,12.00
2019-05-22T05:58:33.285Z,12.00
2019-05-22T06:03:42.865Z,12.00
2019-05-22T06:08:52.120Z,12.00
2019-05-22T06:13:58.093Z,12.00
2019-05-22T06:19:07.733Z,12.00
2019-05-22T06:24:46.984Z,12.00
2019-05-22T06:30:06.485Z,12.00
2019-05-22T06:35:12.534Z,12.00
2019-05-22T06:40:17.717Z,12.00
2019-05-22T06:45:30.608Z,12.00
2019-05-22T06:50:34.980Z,12.00
2019-05-22T06:55:39.336Z,12.00
2019-05-22T07:00:48.565Z,12.00
2019-05-22T07:05:57.314Z,12.00
2019-05-22T07:11:04.685Z,12.10
2019-05-22T07:16:15.717Z,12.20
2019-05-22T07:21:33.340Z,12.30
2019-05-22T07:26:31.247Z,12.40
2019-05-22T07:31:35.390Z,12.40
2019-05-22T07:36:40.876Z,12.40
2019-05-22T07:41:45.259Z,12.40
2019-05-22T07:46:52.244Z,12.40
2019-05-22T07:52:01.788Z,12.40
2019-05-22T07:57:07.543Z,12.30
2019-05-22T08:02:13.157Z,12.30
2019-05-22T08:07:20.396Z,12.30
2019-05-22T08:12:25.896Z,12.40
2019-05-22T08:17:33.336Z,12.40
2019-05-22T08:22:40.589Z,12.40
2019-05-22T08:27:45.347Z,12.50
2019-05-22T08:32:57.531Z,12.60
2019-05-22T08:38:04.819Z,12.70
2019-05-22T08:43:10.318Z,12.80
2019-05-22T08:48:18.690Z,12.80
2019-05-22T08:53:28.895Z,12.80
2019-05-22T08:58:34.705Z,12.70
2019-05-22T09:03:41.654Z,12.70
2019-05-22T09:08:46.152Z,12.80
2019-05-22T09:13:52.751Z,12.80
2019-05-22T09:18:57.412Z,13.00
2019-05-22T09:24:02.685Z,13.10
2019-05-22T09:29:07.723Z,13.10
2019-05-22T09:34:15.156Z,13.10
2019-05-22T09:39:19.697Z,13.10
2019-05-22T09:44:23.215Z,13.20
2019-05-22T09:49:27.477Z,13.40
2019-05-22T09:54:34.813Z,13.70
2019-05-22T09:59:39.738Z,13.90
2019-05-22T10:04:43.937Z,14.10
2019-05-22T10:09:49.224Z,14.30
2019-05-22T10:14:58.664Z,14.40
2019-05-22T10:20:03.878Z,14.40
2019-05-22T10:25:17.150Z,14.40
2019-05-22T10:30:24.702Z,14.60
2019-05-22T10:35:31.768Z,15.00
2019-05-22T10:40:38.251Z,15.30
2019-05-22T10:45:45.244Z,15.60
2019-05-22T10:50:49.851Z,15.70
2019-05-22T10:55:54.098Z,15.90
2019-05-22T11:01:01.475Z,16.00
2019-05-22T11:06:08.612Z,16.30
2019-05-22T11:11:13.187Z,16.80
2019-05-22T11:16:19.040Z,17.40
2019-05-22T11:21:25.382Z,18.20
2019-05-22T11:26:30.234Z,18.40
2019-05-22T11:31:37.284Z,18.30
2019-05-22T11:36:42.905Z,18.00
2019-05-22T11:41:50.853Z,18.00
2019-05-22T11:47:02.332Z,18.20
2019-05-22T11:52:07.548Z,18.10
2019-05-22T11:57:12.491Z,18.30
2019-05-22T12:02:18.766Z,18.90
2019-05-22T12:07:24.330Z,19.10
2019-05-22T12:12:30.292Z,19.10
2019-05-22T12:17:38.761Z,18.80
2019-05-22T12:22:43.544Z,18.80
2019-05-22T12:27:51.005Z,18.80
2019-05-22T12:33:12.584Z,18.70
2019-05-22T12:38:11.491Z,19.00
2019-05-22T12:43:16.328Z,19.00
2019-05-22T12:48:27.875Z,18.80
2019-05-22T12:53:35.735Z,18.50
2019-05-22T12:58:40.301Z,18.40
2019-05-22T13:03:46.807Z,18.20
2019-05-22T13:08:55.089Z,18.60
2019-05-22T13:13:59.369Z,18.90
2019-05-22T13:19:06.391Z,19.10
2019-05-22T13:24:27.216Z,19.20
2019-05-22T13:29:32.742Z,19.30
2019-05-22T13:34:38.412Z,19.50
2019-05-22T13:39:42.724Z,19.70
2019-05-22T13:44:47.501Z,19.60
2019-05-22T13:49:52.416Z,19.80
2019-05-22T13:54:57.366Z,20.00
2019-05-22T14:00:03.978Z,20.20
2019-05-22T14:05:13.683Z,20.30
2019-05-22T14:10:17.764Z,20.40
2019-05-22T14:15:22.099Z,20.10
2019-05-22T14:20:26.285Z,19.80
2019-05-22T14:25:30.659Z,19.70
2019-05-22T14:30:35.042Z,19.80
2019-05-22T14:35:48.807Z,20.10
2019-05-22T14:40:49.844Z,20.40
2019-05-22T14:45:56.504Z,20.40
2019-05-22T14:51:02.758Z,20.40
2019-05-22T14:56:13.416Z,19.90
2019-05-22T15:01:23.058Z,19.50
2019-05-22T15:06:28.744Z,19.20
2019-05-22T15:11:33.083Z,19.00
2019-05-22T15:16:42.283Z,19.00
2019-05-22T15:21:46.903Z,19.10
2019-05-22T15:26:52.724Z,19.00
2019-05-22T15:32:04.355Z,19.10
2019-05-22T15:37:11.262Z,19.20
2019-05-22T15:42:35.912Z,19.30
2019-05-22T15:47:54.833Z,19.50
2019-05-22T15:52:55.505Z,19.80
2019-05-22T15:58:02.702Z,20.10
2019-05-22T16:03:13.657Z,20.10
2019-05-22T16:08:18.205Z,20.20
2019-05-22T16:13:25.344Z,20.20
2019-05-22T16:18:32.920Z,20.20
2019-05-22T16:23:38.624Z,20.10
2019-05-22T16:28:48.881Z,20.10
2019-05-22T16:33:53.615Z,20.00
2019-05-22T16:38:58.218Z,19.90
2019-05-22T16:44:10.402Z,19.70
2019-05-22T16:49:15.264Z,19.70
2019-05-22T16:54:21.089Z,19.70
2019-05-22T16:59:26.215Z,19.50
2019-05-22T17:04:36.949Z,19.40
2019-05-22T17:09:44.618Z,19.20
2019-05-22T17:14:49.689Z,19.00
2019-05-22T17:19:54.879Z,18.70
2019-05-22T17:24:59.266Z,18.50
2019-05-22T17:30:10.606Z,18.20
2019-05-22T17:35:13.507Z,18.00
2019-05-22T17:40:22.454Z,17.80
2019-05-22T17:45:28.164Z,17.60
2019-05-22T17:50:34.166Z,17.40
2019-05-22T17:55:40.757Z,17.20
2019-05-22T18:00:50.648Z,17.00
2019-05-22T18:05:55.160Z,16.80
2019-05-22T18:11:00.476Z,16.70
2019-05-22T18:16:11.198Z,16.50
2019-05-22T18:21:18.126Z,16.30
2019-05-22T18:26:23.196Z,16.10
2019-05-22T18:31:30.312Z,15.90
2019-05-22T18:36:39.120Z,15.70
2019-05-22T18:41:43.254Z,15.50
2019-05-22T18:46:47.938Z,15.30
2019-05-22T18:51:54.049Z,15.20
2019-05-22T18:56:59.788Z,14.90
2019-05-22T19:02:04.404Z,14.70
2019-05-22T19:07:07.643Z,14.50
2019-05-22T19:12:14.535Z,14.40
2019-05-22T19:17:20.233Z,14.20
2019-05-22T19:22:26.410Z,13.90
2019-05-22T19:27:31.153Z,13.60
2019-05-22T19:32:35.354Z,13.30
2019-05-22T19:37:40.631Z,12.90
2019-05-22T19:42:49.632Z,12.70
2019-05-22T19:47:57.783Z,12.40
2019-05-22T19:53:17.586Z,12.20
2019-05-22T19:58:10.548Z,12.00
2019-05-22T20:03:17.952Z,11.80
2019-05-22T20:08:28.770Z,11.70
2019-05-22T20:13:34.002Z,11.50
2019-05-22T20:18:38.077Z,11.30
2019-05-22T20:23:43.677Z,11.20
2019-05-22T20:28:50.089Z,11.00
2019-05-22T20:39:45.492Z,10.80
2019-05-22T20:44:49.772Z,10.60
2019-05-22T20:49:55.580Z,10.50
2019-05-22T20:55:01.680Z,10.50
2019-05-22T21:00:08.399Z,10.40
2019-05-22T21:05:13.956Z,10.30
2019-05-22T21:10:24.789Z,10.20
2019-05-22T21:15:29.613Z,10.20
2019-05-22T21:20:51.844Z,10.10
2019-05-22T21:25:42.669Z,10.00
2019-05-22T21:30:47.839Z,9.90
2019-05-22T21:35:53.960Z,9.80
2019-05-22T21:40:59.726Z,9.80
2019-05-22T21:46:03.911Z,9.70
2019-05-22T21:51:09.019Z,9.60
2019-05-22T21:56:13.970Z,9.50
2019-05-22T22:01:27.417Z,9.40
2019-05-22T22:06:33.345Z,9.40
2019-05-22T22:11:38.581Z,9.30
2019-05-22T22:16:50.141Z,9.20
2019-05-22T22:21:57.222Z,9.20
2019-05-22T22:27:01.543Z,9.10
2019-05-22T22:32:10.595Z,9.10
2019-05-22T22:37:19.719Z,9.10
2019-05-22T22:42:26.630Z,9.00
2019-05-22T22:47:37.701Z,9.00
2019-05-22T22:52:46.417Z,9.00
2019-05-22T22:58:15.982Z,8.90
2019-05-22T23:03:14.665Z,8.90
2019-05-22T23:08:29.990Z,8.90
2019-05-22T23:13:35.660Z,8.80
2019-05-22T23:19:34.196Z,8.80
2019-05-22T23:24:39.615Z,8.80
2019-05-22T23:29:44.716Z,8.80
2019-05-22T23:34:49.386Z,8.70
2019-05-22T23:39:55.386Z,8.70
2019-05-22T23:45:02.913Z,8.60
2019-05-22T23:50:08.488Z,8.60
2019-05-22T23:55:14.813Z,8.60
